• Join FlightAware (Why Join?)
  • Login
  • US Flag 
12:04PM EDT


 

Airport Tracker/Info


-or-


 

Live Flight TrackerFlight Track Log ✈ ZK-OJS ✈ 06-May-2012 ✈ NZCH / CHC - NZAA / AKL

Flight Track Log - Related Links

Times and Time Zones

All times are in EDT time to prevent confusion due to time zone crossing. See the ZK-OJS flight status page for this flight to view local times or setup timezone preferences in your user account.

Time Position Orientation Groundspeed Altitude Reporting Facility
EDT Latitude Longitude Course Direction KTS MPH feet Rate Location/Type
05:02PM -43.4244 172.5573 16° North  Level Estimated
05:03PM -43.3090 172.6016 16° North  Level Estimated
05:04PM -43.1936 172.6458 16° North  Level Estimated
05:05PM -43.0782 172.6898 16° North  Level Estimated
05:06PM -42.9627 172.7336 16° North  Level Estimated
05:07PM -42.8473 172.7773 15° North  Level Estimated
05:08PM -42.7318 172.8208 15° North  Level Estimated
05:09PM -42.6164 172.8641 15° North  Level Estimated
05:10PM -42.5009 172.9073 15° North  Level Estimated
05:11PM -42.3854 172.9503 15° North  Level Estimated
05:12PM -42.2698 172.9932 15° North  Level Estimated
05:13PM -42.1543 173.0359 15° North  Level Estimated
05:14PM -42.0387 173.0785 15° North  Level Estimated
05:15PM -41.9232 173.1209 15° North  Level Estimated
05:16PM -41.8076 173.1631 15° North  Level Estimated
05:17PM -41.6920 173.2052 15° North  Level Estimated
05:18PM -41.5764 173.2472 15° North  Level Estimated
05:19PM -41.4607 173.2890 15° North  Level Estimated
05:20PM -41.3451 173.3306 15° North  Level Estimated
05:21PM -41.2294 173.3721 15° North  Level Estimated
05:22PM -41.1138 173.4135 15° North  Level Estimated
05:23PM -40.9981 173.4547 15° North  Level Estimated
05:24PM -40.8824 173.4957 15° North  Level Estimated
05:25PM -40.7666 173.5367 15° North  Level Estimated
05:26PM -40.6509 173.5774 15° North  Level Estimated
05:27PM -40.5351 173.6181 15° North  Level Estimated
05:28PM -40.4194 173.6586 15° North  Level Estimated
05:29PM -40.3036 173.6989 15° North  Level Estimated
05:30PM -40.1878 173.7391 15° North  Level Estimated
05:31PM -40.0720 173.7792 15° North  Level Estimated
05:32PM -39.9562 173.8192 15° North  Level Estimated
05:33PM -39.8404 173.8590 15° North  Level Estimated
05:34PM -39.7245 173.8986 15° North  Level Estimated
05:35PM -39.6086 173.9382 15° North  Level Estimated
05:36PM -39.4928 173.9776 15° North  Level Estimated
05:37PM -39.3769 174.0169 15° North  Level Estimated
05:38PM -39.2610 174.0560 15° North  Level Estimated
05:39PM -39.1451 174.0950 15° North  Level Estimated
05:40PM -39.0291 174.1339 15° North  Level Estimated
05:41PM -38.9132 174.1727 15° North  Level Estimated
05:42PM -38.7972 174.2113 15° North  Level Estimated
05:43PM -38.6813 174.2499 15° North  Level Estimated
05:44PM -38.5653 174.2883 14° North  Level Estimated
05:45PM -38.4493 174.3265 14° North  Level Estimated
05:46PM -38.3333 174.3647 14° North  Level Estimated
05:47PM -38.2173 174.4027 14° North  Level Estimated
05:48PM -38.1013 174.4406 14° North  Level Estimated
05:49PM -37.9852 174.4783 14° North  Level Estimated
05:50PM -37.8692 174.5160 14° North  Level Estimated
05:51PM -37.7531 174.5535 14° North  Level Estimated
05:52PM -37.6370 174.5909 14° North  Level Estimated
05:53PM -37.5210 174.6283 14° North  Level Estimated
05:54PM -37.4049 174.6654 14° North  Level Estimated
05:55PM -37.2887 174.7025 14° North  Level Estimated
05:56PM -37.1726 174.7395 14° North  Level Estimated
05:57PM -37.0565 174.7763 14° North  Level Estimated
05:58PM -36.9403 174.8131 14° North  Level Estimated